sensor_id;sensor_type;location;lat;lon;timestamp;temperature;humidity
3478;DHT22;37937;61.490;23.506;2023-03-23T00:00:44;3.20;99.90
3478;DHT22;37937;61.490;23.506;2023-03-23T00:03:09;3.30;99.90
3478;DHT22;37937;61.490;23.506;2023-03-23T00:05:35;3.30;99.90
3478;DHT22;37937;61.490;23.506;2023-03-23T00:08:02;3.30;99.90
3478;DHT22;37937;61.490;23.506;2023-03-23T00:10:28;3.30;99.90
3478;DHT22;37937;61.490;23.506;2023-03-23T00:12:58;3.30;99.90
3478;DHT22;37937;61.490;23.506;2023-03-23T00:15:28;3.20;99.90
3478;DHT22;37937;61.490;23.506;2023-03-23T00:18:01;3.20;99.90
3478;DHT22;37937;61.490;23.506;2023-03-23T00:20:30;3.10;99.90
3478;DHT22;37937;61.490;23.506;2023-03-23T00:23:03;3.20;99.90
3478;DHT22;37937;61.490;23.506;2023-03-23T00:25:29;3.20;99.90
3478;DHT22;37937;61.490;23.506;2023-03-23T00:27:55;3.10;99.90
3478;DHT22;37937;61.490;23.506;2023-03-23T00:30:22;3.10;99.90
3478;DHT22;37937;61.490;23.506;2023-03-23T00:32:48;3.10;99.90
3478;DHT22;37937;61.490;23.506;2023-03-23T00:35:14;3.20;99.90
3478;DHT22;37937;61.490;23.506;2023-03-23T00:37:39;3.30;99.90
3478;DHT22;37937;61.490;23.506;2023-03-23T00:40:05;3.20;99.90
3478;DHT22;37937;61.490;23.506;2023-03-23T00:42:35;3.20;99.90
3478;DHT22;37937;61.490;23.506;2023-03-23T00:45:02;3.20;99.90
3478;DHT22;37937;61.490;23.506;2023-03-23T00:47:29;3.20;99.90
3478;DHT22;37937;61.490;23.506;2023-03-23T00:49:55;3.20;99.90
3478;DHT22;37937;61.490;23.506;2023-03-23T00:52:21;3.20;99.90
3478;DHT22;37937;61.490;23.506;2023-03-23T00:54:48;3.20;99.90
3478;DHT22;37937;61.490;23.506;2023-03-23T00:57:13;3.20;99.90
3478;DHT22;37937;61.490;23.506;2023-03-23T00:59:39;3.20;99.90
3478;DHT22;37937;61.490;23.506;2023-03-23T01:02:05;3.20;99.90
3478;DHT22;37937;61.490;23.506;2023-03-23T01:04:31;3.20;99.90
3478;DHT22;37937;61.490;23.506;2023-03-23T01:06:57;3.10;99.90
3478;DHT22;37937;61.490;23.506;2023-03-23T01:09:25;3.10;99.90
3478;DHT22;37937;61.490;23.506;2023-03-23T01:11:52;3.20;99.90
3478;DHT22;37937;61.490;23.506;2023-03-23T01:14:19;3.20;99.90
3478;DHT22;37937;61.490;23.506;2023-03-23T01:16:45;3.20;99.90
3478;DHT22;37937;61.490;23.506;2023-03-23T01:19:11;3.20;99.90
3478;DHT22;37937;61.490;23.506;2023-03-23T01:21:37;3.10;99.90
3478;DHT22;37937;61.490;23.506;2023-03-23T01:24:03;3.20;99.90
3478;DHT22;37937;61.490;23.506;2023-03-23T01:26:29;3.20;99.90
3478;DHT22;37937;61.490;23.506;2023-03-23T01:28:55;3.20;99.90
3478;DHT22;37937;61.490;23.506;2023-03-23T01:31:22;3.20;99.90
3478;DHT22;37937;61.490;23.506;2023-03-23T01:33:49;3.10;99.90
3478;DHT22;37937;61.490;23.506;2023-03-23T01:36:19;3.20;99.90
3478;DHT22;37937;61.490;23.506;2023-03-23T01:38:45;3.10;99.90
3478;DHT22;37937;61.490;23.506;2023-03-23T01:41:11;3.10;99.90
3478;DHT22;37937;61.490;23.506;2023-03-23T01:46:42;3.20;99.90
3478;DHT22;37937;61.490;23.506;2023-03-23T01:49:12;3.20;99.90
3478;DHT22;37937;61.490;23.506;2023-03-23T01:51:45;3.20;99.90
3478;DHT22;37937;61.490;23.506;2023-03-23T01:54:13;3.20;99.90
3478;DHT22;37937;61.490;23.506;2023-03-23T01:56:49;3.20;99.90
3478;DHT22;37937;61.490;23.506;2023-03-23T01:59:16;3.20;99.90
3478;DHT22;37937;61.490;23.506;2023-03-23T02:01:41;3.20;99.90
3478;DHT22;37937;61.490;23.506;2023-03-23T02:04:13;3.20;99.90
3478;DHT22;37937;61.490;23.506;2023-03-23T02:06:40;3.30;99.90
3478;DHT22;37937;61.490;23.506;2023-03-23T02:09:06;3.50;99.90
3478;DHT22;37937;61.490;23.506;2023-03-23T02:11:32;3.40;99.90
3478;DHT22;37937;61.490;23.506;2023-03-23T02:13:58;3.40;99.90
3478;DHT22;37937;61.490;23.506;2023-03-23T02:21:45;3.40;99.90
3478;DHT22;37937;61.490;23.506;2023-03-23T02:31:52;3.60;99.90
3478;DHT22;37937;61.490;23.506;2023-03-23T02:37:14;3.50;99.90
3478;DHT22;37937;61.490;23.506;2023-03-23T02:39:45;3.60;99.90
3478;DHT22;37937;61.490;23.506;2023-03-23T02:42:13;3.60;99.90
3478;DHT22;37937;61.490;23.506;2023-03-23T02:44:41;3.70;99.90
3478;DHT22;37937;61.490;23.506;2023-03-23T02:47:11;3.60;99.90
3478;DHT22;37937;61.490;23.506;2023-03-23T02:49:38;3.60;99.90
3478;DHT22;37937;61.490;23.506;2023-03-23T02:52:10;3.70;99.90
3478;DHT22;37937;61.490;23.506;2023-03-23T02:54:41;3.70;99.90
3478;DHT22;37937;61.490;23.506;2023-03-23T02:57:08;3.70;99.90
3478;DHT22;37937;61.490;23.506;2023-03-23T02:59:33;3.70;99.90
3478;DHT22;37937;61.490;23.506;2023-03-23T03:02:00;3.70;99.90
3478;DHT22;37937;61.490;23.506;2023-03-23T03:04:27;3.70;99.90
3478;DHT22;37937;61.490;23.506;2023-03-23T03:11:59;3.70;99.90
3478;DHT22;37937;61.490;23.506;2023-03-23T03:14:29;3.70;99.90
3478;DHT22;37937;61.490;23.506;2023-03-23T03:17:17;3.70;99.90
3478;DHT22;37937;61.490;23.506;2023-03-23T03:19:45;3.60;99.90
3478;DHT22;37937;61.490;23.506;2023-03-23T03:22:13;3.60;99.90
3478;DHT22;37937;61.490;23.506;2023-03-23T03:24:38;3.70;99.90
3478;DHT22;37937;61.490;23.506;2023-03-23T03:27:09;3.60;99.90
3478;DHT22;37937;61.490;23.506;2023-03-23T03:29:36;3.60;99.90
3478;DHT22;37937;61.490;23.506;2023-03-23T03:32:06;3.60;99.90
3478;DHT22;37937;61.490;23.506;2023-03-23T03:34:33;3.60;99.90
3478;DHT22;37937;61.490;23.506;2023-03-23T03:36:59;3.50;99.90
3478;DHT22;37937;61.490;23.506;2023-03-23T03:39:26;3.50;99.90
3478;DHT22;37937;61.490;23.506;2023-03-23T03:41:52;3.40;99.90
3478;DHT22;37937;61.490;23.506;2023-03-23T03:44:17;3.50;99.90
3478;DHT22;37937;61.490;23.506;2023-03-23T03:46:43;3.40;99.90
3478;DHT22;37937;61.490;23.506;2023-03-23T03:49:09;3.50;99.90
3478;DHT22;37937;61.490;23.506;2023-03-23T03:51:37;3.50;99.90
3478;DHT22;37937;61.490;23.506;2023-03-23T03:54:03;3.40;99.90
3478;DHT22;37937;61.490;23.506;2023-03-23T03:56:28;3.40;99.90
3478;DHT22;37937;61.490;23.506;2023-03-23T03:58:57;3.40;99.90
3478;DHT22;37937;61.490;23.506;2023-03-23T04:01:22;3.40;99.90
3478;DHT22;37937;61.490;23.506;2023-03-23T04:03:49;3.40;99.90
3478;DHT22;37937;61.490;23.506;2023-03-23T04:06:16;3.40;99.90
3478;DHT22;37937;61.490;23.506;2023-03-23T04:08:42;3.30;99.90
3478;DHT22;37937;61.490;23.506;2023-03-23T04:11:08;3.30;99.90
3478;DHT22;37937;61.490;23.506;2023-03-23T04:13:35;3.40;99.90
3478;DHT22;37937;61.490;23.506;2023-03-23T04:16:01;3.30;99.90
3478;DHT22;37937;61.490;23.506;2023-03-23T04:18:27;3.30;99.90
3478;DHT22;37937;61.490;23.506;2023-03-23T04:20:53;3.30;99.90
3478;DHT22;37937;61.490;23.506;2023-03-23T04:23:24;3.20;99.90
3478;DHT22;37937;61.490;23.506;2023-03-23T04:25:50;3.30;99.90
3478;DHT22;37937;61.490;23.506;2023-03-23T04:28:18;3.20;99.90
3478;DHT22;37937;61.490;23.506;2023-03-23T04:30:44;3.20;99.90
3478;DHT22;37937;61.490;23.506;2023-03-23T04:33:10;3.20;99.90
3478;DHT22;37937;61.490;23.506;2023-03-23T04:35:42;3.20;99.90
3478;DHT22;37937;61.490;23.506;2023-03-23T04:38:13;3.20;99.90
3478;DHT22;37937;61.490;23.506;2023-03-23T04:40:39;3.20;99.90
3478;DHT22;37937;61.490;23.506;2023-03-23T04:43:06;3.20;99.90
3478;DHT22;37937;61.490;23.506;2023-03-23T04:45:32;3.20;99.90
3478;DHT22;37937;61.490;23.506;2023-03-23T04:47:58;3.20;99.90
3478;DHT22;37937;61.490;23.506;2023-03-23T04:50:26;3.20;99.90
3478;DHT22;37937;61.490;23.506;2023-03-23T04:52:52;3.20;99.90
3478;DHT22;37937;61.490;23.506;2023-03-23T04:55:19;3.10;99.90
3478;DHT22;37937;61.490;23.506;2023-03-23T04:57:45;3.10;99.90
3478;DHT22;37937;61.490;23.506;2023-03-23T05:00:11;3.10;99.90
3478;DHT22;37937;61.490;23.506;2023-03-23T05:02:39;3.00;99.90
3478;DHT22;37937;61.490;23.506;2023-03-23T05:05:07;3.10;99.90
3478;DHT22;37937;61.490;23.506;2023-03-23T05:07:32;3.10;99.90
3478;DHT22;37937;61.490;23.506;2023-03-23T05:09:58;3.10;99.90
3478;DHT22;37937;61.490;23.506;2023-03-23T05:12:24;3.10;99.90
3478;DHT22;37937;61.490;23.506;2023-03-23T05:14:50;3.10;99.90
3478;DHT22;37937;61.490;23.506;2023-03-23T05:17:15;3.10;99.90
3478;DHT22;37937;61.490;23.506;2023-03-23T05:19:42;3.10;99.90
3478;DHT22;37937;61.490;23.506;2023-03-23T05:22:09;3.10;99.90
3478;DHT22;37937;61.490;23.506;2023-03-23T05:24:38;3.10;99.90
3478;DHT22;37937;61.490;23.506;2023-03-23T05:27:03;3.10;99.90
3478;DHT22;37937;61.490;23.506;2023-03-23T05:29:29;3.10;99.90
3478;DHT22;37937;61.490;23.506;2023-03-23T05:31:59;3.10;99.90
3478;DHT22;37937;61.490;23.506;2023-03-23T05:34:28;3.10;99.90
3478;DHT22;37937;61.490;23.506;2023-03-23T05:36:54;3.10;99.90
3478;DHT22;37937;61.490;23.506;2023-03-23T05:39:20;3.00;99.90
3478;DHT22;37937;61.490;23.506;2023-03-23T05:41:46;3.00;99.90
3478;DHT22;37937;61.490;23.506;2023-03-23T05:44:12;3.00;99.90
3478;DHT22;37937;61.490;23.506;2023-03-23T05:46:39;3.10;99.90
3478;DHT22;37937;61.490;23.506;2023-03-23T05:49:04;3.00;99.90
3478;DHT22;37937;61.490;23.506;2023-03-23T05:51:30;3.00;99.90
3478;DHT22;37937;61.490;23.506;2023-03-23T05:53:56;3.00;99.90
3478;DHT22;37937;61.490;23.506;2023-03-23T05:56:22;3.00;99.90
3478;DHT22;37937;61.490;23.506;2023-03-23T05:58:48;3.00;99.90
3478;DHT22;37937;61.490;23.506;2023-03-23T06:01:14;3.00;99.90
3478;DHT22;37937;61.490;23.506;2023-03-23T06:03:41;3.10;99.90
3478;DHT22;37937;61.490;23.506;2023-03-23T06:06:09;3.00;99.90
3478;DHT22;37937;61.490;23.506;2023-03-23T06:08:35;3.10;99.90
3478;DHT22;37937;61.490;23.506;2023-03-23T06:11:02;3.10;99.90
3478;DHT22;37937;61.490;23.506;2023-03-23T06:13:28;3.10;99.90
3478;DHT22;37937;61.490;23.506;2023-03-23T06:15:57;3.00;99.90
3478;DHT22;37937;61.490;23.506;2023-03-23T06:18:23;3.00;99.90
3478;DHT22;37937;61.490;23.506;2023-03-23T06:20:49;3.00;99.90
3478;DHT22;37937;61.490;23.506;2023-03-23T06:23:16;3.00;99.90
3478;DHT22;37937;61.490;23.506;2023-03-23T06:25:41;3.00;99.90
3478;DHT22;37937;61.490;23.506;2023-03-23T06:28:07;3.00;99.90
3478;DHT22;37937;61.490;23.506;2023-03-23T06:30:34;3.00;99.90
3478;DHT22;37937;61.490;23.506;2023-03-23T06:33:00;3.00;99.90
3478;DHT22;37937;61.490;23.506;2023-03-23T06:35:26;3.00;99.90
3478;DHT22;37937;61.490;23.506;2023-03-23T06:37:51;3.10;99.90
3478;DHT22;37937;61.490;23.506;2023-03-23T06:40:19;3.10;99.90
3478;DHT22;37937;61.490;23.506;2023-03-23T06:42:44;3.10;99.90
3478;DHT22;37937;61.490;23.506;2023-03-23T06:45:10;3.10;99.90
3478;DHT22;37937;61.490;23.506;2023-03-23T06:47:36;3.00;99.90
3478;DHT22;37937;61.490;23.506;2023-03-23T06:50:01;3.00;99.90
3478;DHT22;37937;61.490;23.506;2023-03-23T06:52:27;3.00;99.90
3478;DHT22;37937;61.490;23.506;2023-03-23T06:54:53;2.90;99.90
3478;DHT22;37937;61.490;23.506;2023-03-23T06:57:19;3.00;99.90
3478;DHT22;37937;61.490;23.506;2023-03-23T06:59:45;3.00;99.90
3478;DHT22;37937;61.490;23.506;2023-03-23T07:02:11;3.10;99.90
3478;DHT22;37937;61.490;23.506;2023-03-23T07:04:37;3.10;99.90
3478;DHT22;37937;61.490;23.506;2023-03-23T07:07:04;3.20;99.90
3478;DHT22;37937;61.490;23.506;2023-03-23T07:09:30;3.20;99.90
3478;DHT22;37937;61.490;23.506;2023-03-23T07:11:55;3.30;99.90
3478;DHT22;37937;61.490;23.506;2023-03-23T07:14:21;3.30;99.90
3478;DHT22;37937;61.490;23.506;2023-03-23T07:16:47;3.30;99.90
3478;DHT22;37937;61.490;23.506;2023-03-23T07:19:13;3.40;99.90
3478;DHT22;37937;61.490;23.506;2023-03-23T07:21:39;3.50;99.90
3478;DHT22;37937;61.490;23.506;2023-03-23T07:24:05;3.60;99.90
3478;DHT22;37937;61.490;23.506;2023-03-23T07:26:31;3.60;99.90
3478;DHT22;37937;61.490;23.506;2023-03-23T07:28:57;3.80;99.90
3478;DHT22;37937;61.490;23.506;2023-03-23T07:31:22;3.90;99.90
3478;DHT22;37937;61.490;23.506;2023-03-23T07:33:48;3.90;99.90
3478;DHT22;37937;61.490;23.506;2023-03-23T07:36:13;4.00;99.90
3478;DHT22;37937;61.490;23.506;2023-03-23T07:38:39;4.10;99.90
3478;DHT22;37937;61.490;23.506;2023-03-23T07:41:05;4.10;99.90
3478;DHT22;37937;61.490;23.506;2023-03-23T07:43:31;4.10;99.90
3478;DHT22;37937;61.490;23.506;2023-03-23T07:45:57;4.10;99.90
3478;DHT22;37937;61.490;23.506;2023-03-23T07:48:22;4.20;99.90
3478;DHT22;37937;61.490;23.506;2023-03-23T07:50:48;4.30;99.90
3478;DHT22;37937;61.490;23.506;2023-03-23T07:53:14;4.40;99.90
3478;DHT22;37937;61.490;23.506;2023-03-23T07:55:40;4.40;99.90
3478;DHT22;37937;61.490;23.506;2023-03-23T07:58:05;4.30;99.90
3478;DHT22;37937;61.490;23.506;2023-03-23T08:00:31;4.30;99.90
3478;DHT22;37937;61.490;23.506;2023-03-23T08:02:58;4.20;99.90
3478;DHT22;37937;61.490;23.506;2023-03-23T08:05:24;4.20;99.90
3478;DHT22;37937;61.490;23.506;2023-03-23T08:07:51;4.20;99.90
3478;DHT22;37937;61.490;23.506;2023-03-23T08:10:17;4.20;99.90
3478;DHT22;37937;61.490;23.506;2023-03-23T08:12:43;4.10;99.90
3478;DHT22;37937;61.490;23.506;2023-03-23T08:15:10;4.20;99.90
3478;DHT22;37937;61.490;23.506;2023-03-23T08:17:37;4.30;99.90
3478;DHT22;37937;61.490;23.506;2023-03-23T08:20:04;4.40;99.90
3478;DHT22;37937;61.490;23.506;2023-03-23T08:22:34;4.40;99.90
3478;DHT22;37937;61.490;23.506;2023-03-23T08:25:02;4.50;99.90
3478;DHT22;37937;61.490;23.506;2023-03-23T08:27:29;4.60;99.90
3478;DHT22;37937;61.490;23.506;2023-03-23T08:29:54;4.50;99.90
3478;DHT22;37937;61.490;23.506;2023-03-23T08:32:20;4.60;99.90
3478;DHT22;37937;61.490;23.506;2023-03-23T08:34:45;4.60;99.90
3478;DHT22;37937;61.490;23.506;2023-03-23T08:37:11;4.50;99.90
3478;DHT22;37937;61.490;23.506;2023-03-23T08:39:37;4.40;99.90
3478;DHT22;37937;61.490;23.506;2023-03-23T08:42:02;4.40;99.90
3478;DHT22;37937;61.490;23.506;2023-03-23T08:44:28;4.40;99.90
3478;DHT22;37937;61.490;23.506;2023-03-23T08:46:54;4.40;99.90
3478;DHT22;37937;61.490;23.506;2023-03-23T08:49:23;4.40;99.90
3478;DHT22;37937;61.490;23.506;2023-03-23T08:51:48;4.40;99.90
3478;DHT22;37937;61.490;23.506;2023-03-23T08:54:14;4.30;99.90
3478;DHT22;37937;61.490;23.506;2023-03-23T08:56:40;4.30;99.90
3478;DHT22;37937;61.490;23.506;2023-03-23T08:59:06;4.30;99.90
3478;DHT22;37937;61.490;23.506;2023-03-23T09:01:32;4.30;99.90
3478;DHT22;37937;61.490;23.506;2023-03-23T09:03:58;4.30;99.90
3478;DHT22;37937;61.490;23.506;2023-03-23T09:06:25;4.40;99.90
3478;DHT22;37937;61.490;23.506;2023-03-23T09:08:51;4.40;99.90
3478;DHT22;37937;61.490;23.506;2023-03-23T09:11:17;4.50;99.90
3478;DHT22;37937;61.490;23.506;2023-03-23T09:13:42;4.40;99.90
3478;DHT22;37937;61.490;23.506;2023-03-23T09:16:08;4.30;99.90
3478;DHT22;37937;61.490;23.506;2023-03-23T09:18:34;4.40;99.90
3478;DHT22;37937;61.490;23.506;2023-03-23T09:21:00;4.40;99.90
3478;DHT22;37937;61.490;23.506;2023-03-23T09:23:27;4.40;99.90
3478;DHT22;37937;61.490;23.506;2023-03-23T09:25:52;4.30;99.90
3478;DHT22;37937;61.490;23.506;2023-03-23T09:28:18;4.40;99.90
3478;DHT22;37937;61.490;23.506;2023-03-23T09:30:44;4.40;99.90
3478;DHT22;37937;61.490;23.506;2023-03-23T09:33:10;4.40;99.90
3478;DHT22;37937;61.490;23.506;2023-03-23T09:35:36;4.30;99.90
3478;DHT22;37937;61.490;23.506;2023-03-23T09:38:04;4.20;99.90
3478;DHT22;37937;61.490;23.506;2023-03-23T09:45:46;4.30;99.90
3478;DHT22;37937;61.490;23.506;2023-03-23T09:50:44;4.50;99.90
3478;DHT22;37937;61.490;23.506;2023-03-23T09:53:16;4.50;99.90
3478;DHT22;37937;61.490;23.506;2023-03-23T09:55:42;4.40;99.90
3478;DHT22;37937;61.490;23.506;2023-03-23T09:58:17;4.50;99.90
3478;DHT22;37937;61.490;23.506;2023-03-23T10:00:48;4.50;99.90
3478;DHT22;37937;61.490;23.506;2023-03-23T10:03:21;4.40;99.90
3478;DHT22;37937;61.490;23.506;2023-03-23T10:05:48;4.30;99.90
3478;DHT22;37937;61.490;23.506;2023-03-23T10:08:18;4.30;99.90
3478;DHT22;37937;61.490;23.506;2023-03-23T10:10:46;4.30;99.90
3478;DHT22;37937;61.490;23.506;2023-03-23T10:15:48;4.30;99.90
3478;DHT22;37937;61.490;23.506;2023-03-23T10:18:20;4.40;99.90
3478;DHT22;37937;61.490;23.506;2023-03-23T10:20:59;4.40;99.90
3478;DHT22;37937;61.490;23.506;2023-03-23T10:23:43;4.40;99.90
3478;DHT22;37937;61.490;23.506;2023-03-23T10:28:50;4.40;99.90
3478;DHT22;37937;61.490;23.506;2023-03-23T10:31:24;4.30;99.90
3478;DHT22;37937;61.490;23.506;2023-03-23T11:01:38;4.70;99.90
3478;DHT22;37937;61.490;23.506;2023-03-23T11:19:31;4.80;99.90
3478;DHT22;37937;61.490;23.506;2023-03-23T11:22:08;4.70;99.90
3478;DHT22;37937;61.490;23.506;2023-03-23T11:27:29;4.70;99.90
3478;DHT22;37937;61.490;23.506;2023-03-23T11:36:16;4.80;99.90
3478;DHT22;37937;61.490;23.506;2023-03-23T11:44:46;4.70;99.90
3478;DHT22;37937;61.490;23.506;2023-03-23T11:47:35;4.60;99.90
3478;DHT22;37937;61.490;23.506;2023-03-23T12:24:21;5.10;99.90
3478;DHT22;37937;61.490;23.506;2023-03-23T12:26:30;5.20;99.90
3478;DHT22;37937;61.490;23.506;2023-03-23T12:29:16;5.10;99.90
3478;DHT22;37937;61.490;23.506;2023-03-23T12:31:52;5.10;99.90
3478;DHT22;37937;61.490;23.506;2023-03-23T12:42:27;5.20;99.90
3478;DHT22;37937;61.490;23.506;2023-03-23T12:44:58;5.00;99.90
3478;DHT22;37937;61.490;23.506;2023-03-23T12:47:42;5.20;99.90
3478;DHT22;37937;61.490;23.506;2023-03-23T12:50:18;5.10;99.90
3478;DHT22;37937;61.490;23.506;2023-03-23T12:58:56;5.20;99.90
3478;DHT22;37937;61.490;23.506;2023-03-23T13:01:31;4.90;99.90
3478;DHT22;37937;61.490;23.506;2023-03-23T13:06:31;5.10;99.90
3478;DHT22;37937;61.490;23.506;2023-03-23T13:08:59;5.10;99.90
3478;DHT22;37937;61.490;23.506;2023-03-23T13:19:51;5.00;99.90
3478;DHT22;37937;61.490;23.506;2023-03-23T13:22:25;5.00;99.90
3478;DHT22;37937;61.490;23.506;2023-03-23T13:25:00;5.10;99.90
3478;DHT22;37937;61.490;23.506;2023-03-23T13:27:30;4.90;99.90
3478;DHT22;37937;61.490;23.506;2023-03-23T13:29:56;5.20;99.90
3478;DHT22;37937;61.490;23.506;2023-03-23T13:32:34;5.00;99.90
3478;DHT22;37937;61.490;23.506;2023-03-23T13:35:12;5.00;99.90
3478;DHT22;37937;61.490;23.506;2023-03-23T13:37:48;5.10;99.90
3478;DHT22;37937;61.490;23.506;2023-03-23T13:42:52;5.20;99.90
3478;DHT22;37937;61.490;23.506;2023-03-23T13:53:27;5.20;99.90
3478;DHT22;37937;61.490;23.506;2023-03-23T14:01:32;5.10;99.90
3478;DHT22;37937;61.490;23.506;2023-03-23T14:04:01;5.20;99.90
3478;DHT22;37937;61.490;23.506;2023-03-23T14:06:33;5.10;99.90
3478;DHT22;37937;61.490;23.506;2023-03-23T14:09:03;5.10;99.90
3478;DHT22;37937;61.490;23.506;2023-03-23T14:11:33;5.00;99.90
3478;DHT22;37937;61.490;23.506;2023-03-23T14:14:07;5.00;99.90
3478;DHT22;37937;61.490;23.506;2023-03-23T14:16:40;4.90;99.90
3478;DHT22;37937;61.490;23.506;2023-03-23T14:19:25;4.80;99.90
3478;DHT22;37937;61.490;23.506;2023-03-23T14:21:57;4.80;99.90
3478;DHT22;37937;61.490;23.506;2023-03-23T14:24:30;4.80;99.90
3478;DHT22;37937;61.490;23.506;2023-03-23T14:27:10;4.80;99.90
3478;DHT22;37937;61.490;23.506;2023-03-23T14:29:40;4.80;99.90
3478;DHT22;37937;61.490;23.506;2023-03-23T14:32:06;4.90;99.90
3478;DHT22;37937;61.490;23.506;2023-03-23T14:34:35;4.80;99.90
3478;DHT22;37937;61.490;23.506;2023-03-23T14:37:01;4.70;99.90
3478;DHT22;37937;61.490;23.506;2023-03-23T14:39:28;4.70;99.90
3478;DHT22;37937;61.490;23.506;2023-03-23T14:41:55;4.70;99.90
3478;DHT22;37937;61.490;23.506;2023-03-23T14:44:28;4.60;99.90
3478;DHT22;37937;61.490;23.506;2023-03-23T14:46:57;4.70;99.90
3478;DHT22;37937;61.490;23.506;2023-03-23T14:49:29;4.60;99.90
3478;DHT22;37937;61.490;23.506;2023-03-23T14:52:02;4.60;99.90
3478;DHT22;37937;61.490;23.506;2023-03-23T14:54:48;4.60;99.90
3478;DHT22;37937;61.490;23.506;2023-03-23T15:00:00;4.60;99.90
3478;DHT22;37937;61.490;23.506;2023-03-23T15:02:30;4.60;99.90
3478;DHT22;37937;61.490;23.506;2023-03-23T15:05:11;4.40;99.90
3478;DHT22;37937;61.490;23.506;2023-03-23T15:07:41;4.50;99.90
3478;DHT22;37937;61.490;23.506;2023-03-23T15:10:15;4.40;99.90
3478;DHT22;37937;61.490;23.506;2023-03-23T15:12:43;4.50;99.90
3478;DHT22;37937;61.490;23.506;2023-03-23T15:15:45;4.40;99.90
3478;DHT22;37937;61.490;23.506;2023-03-23T15:19:14;4.20;99.90
3478;DHT22;37937;61.490;23.506;2023-03-23T15:24:43;4.40;99.90
3478;DHT22;37937;61.490;23.506;2023-03-23T15:30:36;4.20;99.90
3478;DHT22;37937;61.490;23.506;2023-03-23T15:33:08;4.20;99.90
3478;DHT22;37937;61.490;23.506;2023-03-23T15:35:38;4.20;99.90
3478;DHT22;37937;61.490;23.506;2023-03-23T15:38:13;4.10;99.90
3478;DHT22;37937;61.490;23.506;2023-03-23T15:40:40;4.00;99.90
3478;DHT22;37937;61.490;23.506;2023-03-23T15:43:20;4.00;99.90
3478;DHT22;37937;61.490;23.506;2023-03-23T15:48:19;3.80;99.90
3478;DHT22;37937;61.490;23.506;2023-03-23T15:50:46;3.70;99.90
3478;DHT22;37937;61.490;23.506;2023-03-23T15:53:19;3.70;99.90
3478;DHT22;37937;61.490;23.506;2023-03-23T15:55:47;3.60;99.90
3478;DHT22;37937;61.490;23.506;2023-03-23T15:58:13;3.60;99.90
3478;DHT22;37937;61.490;23.506;2023-03-23T16:00:40;3.50;99.90
3478;DHT22;37937;61.490;23.506;2023-03-23T16:03:10;3.40;99.90
3478;DHT22;37937;61.490;23.506;2023-03-23T16:05:36;3.40;99.90
3478;DHT22;37937;61.490;23.506;2023-03-23T16:08:02;3.30;99.90
3478;DHT22;37937;61.490;23.506;2023-03-23T16:10:28;3.30;99.90
3478;DHT22;37937;61.490;23.506;2023-03-23T16:12:55;3.20;99.90
3478;DHT22;37937;61.490;23.506;2023-03-23T16:15:21;3.20;99.90
3478;DHT22;37937;61.490;23.506;2023-03-23T16:17:47;3.10;99.90
3478;DHT22;37937;61.490;23.506;2023-03-23T16:20:17;3.10;99.90
3478;DHT22;37937;61.490;23.506;2023-03-23T16:22:43;3.00;99.90
3478;DHT22;37937;61.490;23.506;2023-03-23T16:25:09;3.00;99.90
3478;DHT22;37937;61.490;23.506;2023-03-23T16:27:36;2.90;99.90
3478;DHT22;37937;61.490;23.506;2023-03-23T16:30:09;2.90;99.90
3478;DHT22;37937;61.490;23.506;2023-03-23T16:32:43;2.80;99.90
3478;DHT22;37937;61.490;23.506;2023-03-23T16:35:09;2.80;99.90
3478;DHT22;37937;61.490;23.506;2023-03-23T16:37:35;2.70;99.90
3478;DHT22;37937;61.490;23.506;2023-03-23T16:40:01;2.70;99.90
3478;DHT22;37937;61.490;23.506;2023-03-23T16:42:30;2.70;99.90
3478;DHT22;37937;61.490;23.506;2023-03-23T16:44:55;2.60;99.90
3478;DHT22;37937;61.490;23.506;2023-03-23T16:47:21;2.60;99.90
3478;DHT22;37937;61.490;23.506;2023-03-23T16:49:55;2.60;99.90
3478;DHT22;37937;61.490;23.506;2023-03-23T16:52:21;2.50;99.90
3478;DHT22;37937;61.490;23.506;2023-03-23T16:54:49;2.50;99.90
3478;DHT22;37937;61.490;23.506;2023-03-23T16:57:15;2.50;99.90
3478;DHT22;37937;61.490;23.506;2023-03-23T16:59:41;2.40;99.90
3478;DHT22;37937;61.490;23.506;2023-03-23T17:02:10;2.30;99.90
3478;DHT22;37937;61.490;23.506;2023-03-23T17:04:36;2.30;99.90
3478;DHT22;37937;61.490;23.506;2023-03-23T17:07:02;2.20;99.90
3478;DHT22;37937;61.490;23.506;2023-03-23T17:09:28;2.20;99.90
3478;DHT22;37937;61.490;23.506;2023-03-23T17:11:59;2.20;99.90
3478;DHT22;37937;61.490;23.506;2023-03-23T17:14:25;2.20;99.90
3478;DHT22;37937;61.490;23.506;2023-03-23T17:16:52;2.20;99.90
3478;DHT22;37937;61.490;23.506;2023-03-23T17:19:21;2.20;99.90
3478;DHT22;37937;61.490;23.506;2023-03-23T17:21:47;2.20;99.90
3478;DHT22;37937;61.490;23.506;2023-03-23T17:24:12;2.20;99.90
3478;DHT22;37937;61.490;23.506;2023-03-23T17:26:40;2.20;99.90
3478;DHT22;37937;61.490;23.506;2023-03-23T17:29:08;2.20;99.90
3478;DHT22;37937;61.490;23.506;2023-03-23T17:31:34;2.00;99.90
3478;DHT22;37937;61.490;23.506;2023-03-23T17:34:00;2.10;99.90
3478;DHT22;37937;61.490;23.506;2023-03-23T17:36:30;2.10;99.90
3478;DHT22;37937;61.490;23.506;2023-03-23T17:38:55;2.00;99.90
3478;DHT22;37937;61.490;23.506;2023-03-23T17:41:21;1.90;99.90
3478;DHT22;37937;61.490;23.506;2023-03-23T17:43:49;1.90;99.90
3478;DHT22;37937;61.490;23.506;2023-03-23T17:46:15;1.90;99.90
3478;DHT22;37937;61.490;23.506;2023-03-23T17:48:40;1.80;99.90
3478;DHT22;37937;61.490;23.506;2023-03-23T17:51:11;1.80;99.90
3478;DHT22;37937;61.490;23.506;2023-03-23T17:53:37;1.80;99.90
3478;DHT22;37937;61.490;23.506;2023-03-23T17:56:06;1.60;99.90
3478;DHT22;37937;61.490;23.506;2023-03-23T17:58:37;1.70;99.90
3478;DHT22;37937;61.490;23.506;2023-03-23T18:01:02;1.70;99.90
3478;DHT22;37937;61.490;23.506;2023-03-23T18:03:28;1.60;99.90
3478;DHT22;37937;61.490;23.506;2023-03-23T18:05:58;1.60;99.90
3478;DHT22;37937;61.490;23.506;2023-03-23T18:08:24;1.60;99.90
3478;DHT22;37937;61.490;23.506;2023-03-23T18:10:53;1.50;99.90
3478;DHT22;37937;61.490;23.506;2023-03-23T18:13:19;1.50;99.90
3478;DHT22;37937;61.490;23.506;2023-03-23T18:15:51;1.40;99.90
3478;DHT22;37937;61.490;23.506;2023-03-23T18:18:21;1.30;99.90
3478;DHT22;37937;61.490;23.506;2023-03-23T18:21:02;1.30;99.90
3478;DHT22;37937;61.490;23.506;2023-03-23T18:23:28;1.30;99.90
3478;DHT22;37937;61.490;23.506;2023-03-23T18:25:56;1.30;99.90
3478;DHT22;37937;61.490;23.506;2023-03-23T18:28:22;1.20;99.90
3478;DHT22;37937;61.490;23.506;2023-03-23T18:30:50;1.20;99.90
3478;DHT22;37937;61.490;23.506;2023-03-23T18:33:19;1.10;99.90
3478;DHT22;37937;61.490;23.506;2023-03-23T18:35:45;1.30;99.90
3478;DHT22;37937;61.490;23.506;2023-03-23T18:38:11;1.00;99.90
3478;DHT22;37937;61.490;23.506;2023-03-23T18:40:41;1.00;99.90
3478;DHT22;37937;61.490;23.506;2023-03-23T18:43:07;1.00;99.90
3478;DHT22;37937;61.490;23.506;2023-03-23T18:45:35;1.00;99.90
3478;DHT22;37937;61.490;23.506;2023-03-23T18:48:02;1.00;99.90
3478;DHT22;37937;61.490;23.506;2023-03-23T18:50:28;0.90;99.90
3478;DHT22;37937;61.490;23.506;2023-03-23T18:52:54;0.80;99.90